sensor_id;sensor_type;location;lat;lon;timestamp;temperature;humidity
50969;DHT22;36982;51.474;7.228;2022-07-29T00:00:40;19.00;93.30
50969;DHT22;36982;51.474;7.228;2022-07-29T00:03:10;19.00;93.30
50969;DHT22;36982;51.474;7.228;2022-07-29T00:05:36;19.10;93.20
50969;DHT22;36982;51.474;7.228;2022-07-29T00:08:01;19.00;93.20
50969;DHT22;36982;51.474;7.228;2022-07-29T00:10:27;19.00;93.30
50969;DHT22;36982;51.474;7.228;2022-07-29T00:12:53;19.00;93.20
50969;DHT22;36982;51.474;7.228;2022-07-29T00:15:18;18.90;93.40
50969;DHT22;36982;51.474;7.228;2022-07-29T00:17:44;18.90;93.50
50969;DHT22;36982;51.474;7.228;2022-07-29T00:20:10;18.90;93.40
50969;DHT22;36982;51.474;7.228;2022-07-29T00:22:39;18.80;93.50
50969;DHT22;36982;51.474;7.228;2022-07-29T00:25:05;18.90;93.40
50969;DHT22;36982;51.474;7.228;2022-07-29T00:27:31;18.90;93.30
50969;DHT22;36982;51.474;7.228;2022-07-29T00:29:57;18.90;93.50
50969;DHT22;36982;51.474;7.228;2022-07-29T00:32:22;18.90;93.60
50969;DHT22;36982;51.474;7.228;2022-07-29T00:34:48;18.80;93.40
50969;DHT22;36982;51.474;7.228;2022-07-29T00:37:32;18.90;93.50
50969;DHT22;36982;51.474;7.228;2022-07-29T00:39:58;18.80;93.40
50969;DHT22;36982;51.474;7.228;2022-07-29T00:42:23;18.80;93.40
50969;DHT22;36982;51.474;7.228;2022-07-29T00:44:49;18.90;93.40
50969;DHT22;36982;51.474;7.228;2022-07-29T00:47:14;18.90;93.50
50969;DHT22;36982;51.474;7.228;2022-07-29T00:49:41;18.80;93.40
50969;DHT22;36982;51.474;7.228;2022-07-29T00:52:09;18.80;93.60
50969;DHT22;36982;51.474;7.228;2022-07-29T00:54:35;18.80;93.50
50969;DHT22;36982;51.474;7.228;2022-07-29T00:57:03;18.80;93.60
50969;DHT22;36982;51.474;7.228;2022-07-29T00:59:28;18.70;93.60
50969;DHT22;36982;51.474;7.228;2022-07-29T01:01:55;18.70;93.80
50969;DHT22;36982;51.474;7.228;2022-07-29T01:04:21;18.60;93.80
50969;DHT22;36982;51.474;7.228;2022-07-29T01:06:48;18.50;93.70
50969;DHT22;36982;51.474;7.228;2022-07-29T01:09:14;18.40;93.90
50969;DHT22;36982;51.474;7.228;2022-07-29T01:11:42;18.30;94.20
50969;DHT22;36982;51.474;7.228;2022-07-29T01:14:09;18.30;94.20
50969;DHT22;36982;51.474;7.228;2022-07-29T01:16:56;18.20;94.30
50969;DHT22;36982;51.474;7.228;2022-07-29T01:22:04;18.30;94.50
50969;DHT22;36982;51.474;7.228;2022-07-29T01:28:17;18.30;94.30
50969;DHT22;36982;51.474;7.228;2022-07-29T01:30:15;18.20;94.40
50969;DHT22;36982;51.474;7.228;2022-07-29T01:32:41;18.20;94.60
50969;DHT22;36982;51.474;7.228;2022-07-29T01:35:19;18.20;94.50
50969;DHT22;36982;51.474;7.228;2022-07-29T01:37:57;18.20;94.50
50969;DHT22;36982;51.474;7.228;2022-07-29T01:42:58;18.10;94.80
50969;DHT22;36982;51.474;7.228;2022-07-29T01:51:05;18.00;95.00
50969;DHT22;36982;51.474;7.228;2022-07-29T01:53:44;18.00;94.90
50969;DHT22;36982;51.474;7.228;2022-07-29T01:56:12;18.10;94.90
50969;DHT22;36982;51.474;7.228;2022-07-29T01:58:45;18.10;95.00
50969;DHT22;36982;51.474;7.228;2022-07-29T02:01:13;18.10;95.10
50969;DHT22;36982;51.474;7.228;2022-07-29T02:03:42;18.00;95.00
50969;DHT22;36982;51.474;7.228;2022-07-29T02:06:09;18.00;95.00
50969;DHT22;36982;51.474;7.228;2022-07-29T02:08:37;17.90;95.20
50969;DHT22;36982;51.474;7.228;2022-07-29T02:11:05;17.80;95.40
50969;DHT22;36982;51.474;7.228;2022-07-29T02:13:32;17.80;95.40
50969;DHT22;36982;51.474;7.228;2022-07-29T02:16:00;17.90;95.40
50969;DHT22;36982;51.474;7.228;2022-07-29T02:18:28;17.90;95.50
50969;DHT22;36982;51.474;7.228;2022-07-29T02:20:56;17.90;95.70
50969;DHT22;36982;51.474;7.228;2022-07-29T02:23:24;18.00;95.80
50969;DHT22;36982;51.474;7.228;2022-07-29T02:25:54;18.00;95.70
50969;DHT22;36982;51.474;7.228;2022-07-29T02:28:25;18.10;95.80
50969;DHT22;36982;51.474;7.228;2022-07-29T02:30:53;18.10;95.80
50969;DHT22;36982;51.474;7.228;2022-07-29T02:33:20;18.10;95.60
50969;DHT22;36982;51.474;7.228;2022-07-29T02:35:48;18.00;95.60
50969;DHT22;36982;51.474;7.228;2022-07-29T02:38:15;17.90;95.80
50969;DHT22;36982;51.474;7.228;2022-07-29T02:41:10;17.90;95.90
50969;DHT22;36982;51.474;7.228;2022-07-29T02:43:37;17.80;96.00
50969;DHT22;36982;51.474;7.228;2022-07-29T02:46:05;17.70;96.00
50969;DHT22;36982;51.474;7.228;2022-07-29T02:48:39;17.60;96.00
50969;DHT22;36982;51.474;7.228;2022-07-29T02:51:12;17.60;96.20
50969;DHT22;36982;51.474;7.228;2022-07-29T02:53:43;17.60;96.40
50969;DHT22;36982;51.474;7.228;2022-07-29T02:56:16;17.70;96.60
50969;DHT22;36982;51.474;7.228;2022-07-29T02:58:59;17.80;96.50
50969;DHT22;36982;51.474;7.228;2022-07-29T03:01:29;17.70;96.40
50969;DHT22;36982;51.474;7.228;2022-07-29T03:03:55;17.70;96.40
50969;DHT22;36982;51.474;7.228;2022-07-29T03:06:24;17.70;96.50
50969;DHT22;36982;51.474;7.228;2022-07-29T03:08:51;17.70;96.40
50969;DHT22;36982;51.474;7.228;2022-07-29T03:11:17;17.70;96.50
50969;DHT22;36982;51.474;7.228;2022-07-29T03:13:43;17.60;96.70
50969;DHT22;36982;51.474;7.228;2022-07-29T03:16:10;17.60;96.80
50969;DHT22;36982;51.474;7.228;2022-07-29T03:18:37;17.70;96.50
50969;DHT22;36982;51.474;7.228;2022-07-29T03:21:03;17.70;96.50
50969;DHT22;36982;51.474;7.228;2022-07-29T03:23:29;17.70;96.60
50969;DHT22;36982;51.474;7.228;2022-07-29T03:25:55;17.60;96.70
50969;DHT22;36982;51.474;7.228;2022-07-29T03:28:21;17.60;96.60
50969;DHT22;36982;51.474;7.228;2022-07-29T03:30:48;17.60;96.80
50969;DHT22;36982;51.474;7.228;2022-07-29T03:33:14;17.60;96.90
50969;DHT22;36982;51.474;7.228;2022-07-29T03:35:40;17.60;96.70
50969;DHT22;36982;51.474;7.228;2022-07-29T03:38:05;17.70;96.80
50969;DHT22;36982;51.474;7.228;2022-07-29T03:40:35;17.70;96.80
50969;DHT22;36982;51.474;7.228;2022-07-29T03:43:04;17.70;96.60
50969;DHT22;36982;51.474;7.228;2022-07-29T03:45:32;17.60;96.70
50969;DHT22;36982;51.474;7.228;2022-07-29T03:48:08;17.70;97.10
50969;DHT22;36982;51.474;7.228;2022-07-29T03:50:35;17.70;96.60
50969;DHT22;36982;51.474;7.228;2022-07-29T03:53:02;17.70;96.60
50969;DHT22;36982;51.474;7.228;2022-07-29T03:55:30;17.70;96.70
50969;DHT22;36982;51.474;7.228;2022-07-29T03:57:58;17.60;96.90
50969;DHT22;36982;51.474;7.228;2022-07-29T04:00:25;17.50;97.10
50969;DHT22;36982;51.474;7.228;2022-07-29T04:02:52;17.60;97.10
50969;DHT22;36982;51.474;7.228;2022-07-29T04:05:18;17.70;97.10
50969;DHT22;36982;51.474;7.228;2022-07-29T04:07:47;17.60;96.90
50969;DHT22;36982;51.474;7.228;2022-07-29T04:10:13;17.60;97.20
50969;DHT22;36982;51.474;7.228;2022-07-29T04:12:40;17.60;97.00
50969;DHT22;36982;51.474;7.228;2022-07-29T04:15:07;17.70;97.10
50969;DHT22;36982;51.474;7.228;2022-07-29T04:17:32;17.80;96.90
50969;DHT22;36982;51.474;7.228;2022-07-29T04:19:58;17.80;96.90
50969;DHT22;36982;51.474;7.228;2022-07-29T04:22:23;17.80;97.00
50969;DHT22;36982;51.474;7.228;2022-07-29T04:24:49;17.80;96.90
50969;DHT22;36982;51.474;7.228;2022-07-29T04:27:15;17.80;96.70
50969;DHT22;36982;51.474;7.228;2022-07-29T04:29:40;17.80;96.80
50969;DHT22;36982;51.474;7.228;2022-07-29T04:32:06;17.80;96.90
50969;DHT22;36982;51.474;7.228;2022-07-29T04:34:32;17.80;97.00
50969;DHT22;36982;51.474;7.228;2022-07-29T04:36:57;17.80;96.90
50969;DHT22;36982;51.474;7.228;2022-07-29T04:39:23;17.80;97.20
50969;DHT22;36982;51.474;7.228;2022-07-29T04:41:49;17.80;97.10
50969;DHT22;36982;51.474;7.228;2022-07-29T04:44:15;17.60;97.50
50969;DHT22;36982;51.474;7.228;2022-07-29T04:46:41;17.60;97.50
50969;DHT22;36982;51.474;7.228;2022-07-29T04:49:07;17.60;97.70
50969;DHT22;36982;51.474;7.228;2022-07-29T04:51:33;17.60;97.70
50969;DHT22;36982;51.474;7.228;2022-07-29T04:53:59;17.60;97.80
50969;DHT22;36982;51.474;7.228;2022-07-29T04:56:24;17.60;97.80
50969;DHT22;36982;51.474;7.228;2022-07-29T04:58:50;17.50;97.90
50969;DHT22;36982;51.474;7.228;2022-07-29T05:01:16;17.50;98.00
50969;DHT22;36982;51.474;7.228;2022-07-29T05:03:41;17.50;98.10
50969;DHT22;36982;51.474;7.228;2022-07-29T05:06:07;17.60;98.20
50969;DHT22;36982;51.474;7.228;2022-07-29T05:08:32;17.60;98.20
50969;DHT22;36982;51.474;7.228;2022-07-29T05:10:58;17.50;98.40
50969;DHT22;36982;51.474;7.228;2022-07-29T05:13:24;17.40;98.70
50969;DHT22;36982;51.474;7.228;2022-07-29T05:15:49;17.20;98.90
50969;DHT22;36982;51.474;7.228;2022-07-29T05:18:15;17.20;99.40
50969;DHT22;36982;51.474;7.228;2022-07-29T05:20:41;17.20;99.70
50969;DHT22;36982;51.474;7.228;2022-07-29T05:23:07;17.00;99.90
50969;DHT22;36982;51.474;7.228;2022-07-29T05:25:32;16.90;99.90
50969;DHT22;36982;51.474;7.228;2022-07-29T05:27:58;16.90;99.90
50969;DHT22;36982;51.474;7.228;2022-07-29T05:30:24;17.00;99.90
50969;DHT22;36982;51.474;7.228;2022-07-29T05:32:50;17.00;99.90
50969;DHT22;36982;51.474;7.228;2022-07-29T05:35:16;17.10;99.90
50969;DHT22;36982;51.474;7.228;2022-07-29T05:37:41;17.10;99.90
50969;DHT22;36982;51.474;7.228;2022-07-29T05:40:07;16.90;99.90
50969;DHT22;36982;51.474;7.228;2022-07-29T05:42:34;16.80;99.90
50969;DHT22;36982;51.474;7.228;2022-07-29T05:45:00;16.70;99.90
50969;DHT22;36982;51.474;7.228;2022-07-29T05:47:26;16.60;99.90
50969;DHT22;36982;51.474;7.228;2022-07-29T05:49:51;16.60;99.90
50969;DHT22;36982;51.474;7.228;2022-07-29T05:52:17;16.80;99.90
50969;DHT22;36982;51.474;7.228;2022-07-29T05:54:43;16.90;99.90
50969;DHT22;36982;51.474;7.228;2022-07-29T05:57:18;17.00;99.90
50969;DHT22;36982;51.474;7.228;2022-07-29T05:59:44;16.90;99.90
50969;DHT22;36982;51.474;7.228;2022-07-29T06:02:10;17.00;99.90
50969;DHT22;36982;51.474;7.228;2022-07-29T06:04:35;17.10;99.90
50969;DHT22;36982;51.474;7.228;2022-07-29T06:07:01;17.20;99.90
50969;DHT22;36982;51.474;7.228;2022-07-29T06:09:27;17.40;99.90
50969;DHT22;36982;51.474;7.228;2022-07-29T06:11:52;17.30;99.90
50969;DHT22;36982;51.474;7.228;2022-07-29T06:14:18;17.30;99.90
50969;DHT22;36982;51.474;7.228;2022-07-29T06:16:44;17.30;99.90
50969;DHT22;36982;51.474;7.228;2022-07-29T06:19:09;17.20;99.90
50969;DHT22;36982;51.474;7.228;2022-07-29T06:21:35;17.40;99.90
50969;DHT22;36982;51.474;7.228;2022-07-29T06:24:01;17.80;99.90
50969;DHT22;36982;51.474;7.228;2022-07-29T06:26:27;18.20;99.90
50969;DHT22;36982;51.474;7.228;2022-07-29T06:28:52;18.80;99.60
50969;DHT22;36982;51.474;7.228;2022-07-29T06:31:18;19.10;99.00
50969;DHT22;36982;51.474;7.228;2022-07-29T06:33:43;19.00;98.50
50969;DHT22;36982;51.474;7.228;2022-07-29T06:36:09;18.70;98.80
50969;DHT22;36982;51.474;7.228;2022-07-29T06:38:35;18.60;98.90
50969;DHT22;36982;51.474;7.228;2022-07-29T06:41:01;18.50;99.10
50969;DHT22;36982;51.474;7.228;2022-07-29T06:43:38;18.70;99.90
50969;DHT22;36982;51.474;7.228;2022-07-29T06:46:08;18.90;99.90
50969;DHT22;36982;51.474;7.228;2022-07-29T06:48:35;19.10;99.40
50969;DHT22;36982;51.474;7.228;2022-07-29T06:51:05;19.20;99.20
50969;DHT22;36982;51.474;7.228;2022-07-29T06:53:32;19.10;99.20
50969;DHT22;36982;51.474;7.228;2022-07-29T06:55:59;18.90;99.50
50969;DHT22;36982;51.474;7.228;2022-07-29T06:58:26;18.90;99.90
50969;DHT22;36982;51.474;7.228;2022-07-29T07:00:52;18.80;99.80
50969;DHT22;36982;51.474;7.228;2022-07-29T07:03:19;18.70;99.90
50969;DHT22;36982;51.474;7.228;2022-07-29T07:05:45;18.70;99.90
50969;DHT22;36982;51.474;7.228;2022-07-29T07:08:12;18.80;99.90
50969;DHT22;36982;51.474;7.228;2022-07-29T07:10:38;18.90;99.90
50969;DHT22;36982;51.474;7.228;2022-07-29T07:13:04;18.90;99.90
50969;DHT22;36982;51.474;7.228;2022-07-29T07:15:30;19.00;99.90
50969;DHT22;36982;51.474;7.228;2022-07-29T07:17:56;19.00;99.90
50969;DHT22;36982;51.474;7.228;2022-07-29T07:20:23;19.00;99.90
50969;DHT22;36982;51.474;7.228;2022-07-29T07:22:48;19.10;99.90
50969;DHT22;36982;51.474;7.228;2022-07-29T07:25:14;19.30;99.90
50969;DHT22;36982;51.474;7.228;2022-07-29T07:27:39;19.50;99.90
50969;DHT22;36982;51.474;7.228;2022-07-29T07:30:06;19.60;99.90
50969;DHT22;36982;51.474;7.228;2022-07-29T07:32:33;19.70;99.90
50969;DHT22;36982;51.474;7.228;2022-07-29T07:34:58;19.90;99.50
50969;DHT22;36982;51.474;7.228;2022-07-29T07:37:25;20.20;99.40
50969;DHT22;36982;51.474;7.228;2022-07-29T07:39:53;20.50;98.80
50969;DHT22;36982;51.474;7.228;2022-07-29T07:42:19;20.60;98.70
50969;DHT22;36982;51.474;7.228;2022-07-29T07:44:45;20.80;98.00
50969;DHT22;36982;51.474;7.228;2022-07-29T07:47:12;20.70;98.00
50969;DHT22;36982;51.474;7.228;2022-07-29T07:49:38;20.60;98.10
50969;DHT22;36982;51.474;7.228;2022-07-29T07:52:04;20.70;98.10
50969;DHT22;36982;51.474;7.228;2022-07-29T07:54:30;20.70;97.60
50969;DHT22;36982;51.474;7.228;2022-07-29T07:56:56;20.70;97.70
50969;DHT22;36982;51.474;7.228;2022-07-29T07:59:22;20.30;97.80
50969;DHT22;36982;51.474;7.228;2022-07-29T08:01:48;20.10;98.70
50969;DHT22;36982;51.474;7.228;2022-07-29T08:04:13;19.80;98.70
50969;DHT22;36982;51.474;7.228;2022-07-29T08:06:39;19.90;98.50
50969;DHT22;36982;51.474;7.228;2022-07-29T08:09:05;20.20;97.90
50969;DHT22;36982;51.474;7.228;2022-07-29T08:11:31;20.30;97.60
50969;DHT22;36982;51.474;7.228;2022-07-29T08:13:56;20.10;97.60
50969;DHT22;36982;51.474;7.228;2022-07-29T08:16:22;20.20;97.60
50969;DHT22;36982;51.474;7.228;2022-07-29T08:18:50;20.40;97.80
50969;DHT22;36982;51.474;7.228;2022-07-29T08:21:16;20.60;98.30
50969;DHT22;36982;51.474;7.228;2022-07-29T08:23:46;20.70;97.80
50969;DHT22;36982;51.474;7.228;2022-07-29T08:26:14;21.00;98.00
50969;DHT22;36982;51.474;7.228;2022-07-29T08:28:42;21.10;97.80
50969;DHT22;36982;51.474;7.228;2022-07-29T08:31:14;21.20;97.50
50969;DHT22;36982;51.474;7.228;2022-07-29T08:33:41;21.30;97.20
50969;DHT22;36982;51.474;7.228;2022-07-29T08:36:06;21.40;97.00
50969;DHT22;36982;51.474;7.228;2022-07-29T08:38:33;21.50;96.70
50969;DHT22;36982;51.474;7.228;2022-07-29T08:41:00;21.50;96.90
50969;DHT22;36982;51.474;7.228;2022-07-29T08:43:28;21.50;96.60
50969;DHT22;36982;51.474;7.228;2022-07-29T08:45:54;21.50;96.40
50969;DHT22;36982;51.474;7.228;2022-07-29T08:48:21;21.40;96.90
50969;DHT22;36982;51.474;7.228;2022-07-29T08:50:52;21.40;96.60
50969;DHT22;36982;51.474;7.228;2022-07-29T08:53:21;21.20;97.00
50969;DHT22;36982;51.474;7.228;2022-07-29T08:55:48;21.30;97.50
50969;DHT22;36982;51.474;7.228;2022-07-29T08:58:16;21.30;97.30
50969;DHT22;36982;51.474;7.228;2022-07-29T09:00:45;21.20;97.20
50969;DHT22;36982;51.474;7.228;2022-07-29T09:03:18;21.20;97.30
50969;DHT22;36982;51.474;7.228;2022-07-29T09:05:48;21.20;97.80
50969;DHT22;36982;51.474;7.228;2022-07-29T09:08:15;21.20;98.20
50969;DHT22;36982;51.474;7.228;2022-07-29T09:10:41;21.20;98.00
50969;DHT22;36982;51.474;7.228;2022-07-29T09:13:07;21.00;97.60
50969;DHT22;36982;51.474;7.228;2022-07-29T09:15:32;20.30;98.40
50969;DHT22;36982;51.474;7.228;2022-07-29T09:17:58;20.20;99.00
50969;DHT22;36982;51.474;7.228;2022-07-29T09:20:25;20.20;99.80
50969;DHT22;36982;51.474;7.228;2022-07-29T09:23:12;20.20;99.90
50969;DHT22;36982;51.474;7.228;2022-07-29T09:25:39;20.20;99.90
50969;DHT22;36982;51.474;7.228;2022-07-29T09:28:16;20.10;99.90
50969;DHT22;36982;51.474;7.228;2022-07-29T09:30:56;20.10;99.90
50969;DHT22;36982;51.474;7.228;2022-07-29T09:33:24;20.10;99.90
50969;DHT22;36982;51.474;7.228;2022-07-29T09:36:07;20.00;99.90
50969;DHT22;36982;51.474;7.228;2022-07-29T09:38:33;19.90;99.90
50969;DHT22;36982;51.474;7.228;2022-07-29T09:41:02;19.90;99.90
50969;DHT22;36982;51.474;7.228;2022-07-29T09:43:28;19.70;99.90
50969;DHT22;36982;51.474;7.228;2022-07-29T09:45:54;19.40;99.90
50969;DHT22;36982;51.474;7.228;2022-07-29T09:48:23;19.20;99.90
50969;DHT22;36982;51.474;7.228;2022-07-29T09:50:49;18.70;99.90
50969;DHT22;36982;51.474;7.228;2022-07-29T09:53:44;18.50;99.90
50969;DHT22;36982;51.474;7.228;2022-07-29T09:56:10;18.30;99.90
50969;DHT22;36982;51.474;7.228;2022-07-29T09:58:36;18.30;99.90
50969;DHT22;36982;51.474;7.228;2022-07-29T10:01:02;18.40;99.90
50969;DHT22;36982;51.474;7.228;2022-07-29T10:03:28;18.30;99.90
50969;DHT22;36982;51.474;7.228;2022-07-29T10:06:10;18.30;99.90
50969;DHT22;36982;51.474;7.228;2022-07-29T10:08:36;18.30;99.90
50969;DHT22;36982;51.474;7.228;2022-07-29T10:11:14;18.30;99.90
50969;DHT22;36982;51.474;7.228;2022-07-29T10:13:42;18.50;99.90
50969;DHT22;36982;51.474;7.228;2022-07-29T10:16:08;18.40;99.90
50969;DHT22;36982;51.474;7.228;2022-07-29T10:18:34;18.40;99.90
50969;DHT22;36982;51.474;7.228;2022-07-29T10:21:00;18.30;99.90
50969;DHT22;36982;51.474;7.228;2022-07-29T10:23:28;18.50;99.90
50969;DHT22;36982;51.474;7.228;2022-07-29T10:25:54;18.60;99.90
50969;DHT22;36982;51.474;7.228;2022-07-29T10:28:20;18.80;99.90
50969;DHT22;36982;51.474;7.228;2022-07-29T10:30:46;18.70;99.90
50969;DHT22;36982;51.474;7.228;2022-07-29T10:41:59;18.80;99.90
50969;DHT22;36982;51.474;7.228;2022-07-29T10:44:27;18.70;99.90
50969;DHT22;36982;51.474;7.228;2022-07-29T10:46:53;18.70;99.90
50969;DHT22;36982;51.474;7.228;2022-07-29T10:49:21;18.80;99.90
50969;DHT22;36982;51.474;7.228;2022-07-29T11:05:18;18.90;99.90
50969;DHT22;36982;51.474;7.228;2022-07-29T11:08:16;18.90;99.90
50969;DHT22;36982;51.474;7.228;2022-07-29T11:10:43;18.90;99.90
50969;DHT22;36982;51.474;7.228;2022-07-29T11:13:09;19.00;99.90
50969;DHT22;36982;51.474;7.228;2022-07-29T11:15:54;19.00;99.90
50969;DHT22;36982;51.474;7.228;2022-07-29T11:18:20;19.10;99.90
50969;DHT22;36982;51.474;7.228;2022-07-29T11:20:48;18.90;99.90
50969;DHT22;36982;51.474;7.228;2022-07-29T11:29:04;18.60;99.90
50969;DHT22;36982;51.474;7.228;2022-07-29T11:31:35;18.70;99.90
50969;DHT22;36982;51.474;7.228;2022-07-29T11:45:02;19.10;99.90
50969;DHT22;36982;51.474;7.228;2022-07-29T11:47:34;19.10;99.90
50969;DHT22;36982;51.474;7.228;2022-07-29T11:50:01;19.00;99.90
50969;DHT22;36982;51.474;7.228;2022-07-29T11:55:04;19.40;99.90
50969;DHT22;36982;51.474;7.228;2022-07-29T11:57:30;19.50;99.90
50969;DHT22;36982;51.474;7.228;2022-07-29T11:59:58;19.70;99.90
50969;DHT22;36982;51.474;7.228;2022-07-29T12:02:24;19.90;99.90
50969;DHT22;36982;51.474;7.228;2022-07-29T12:04:53;20.20;99.90
50969;DHT22;36982;51.474;7.228;2022-07-29T12:07:29;20.20;99.90
50969;DHT22;36982;51.474;7.228;2022-07-29T12:09:56;20.30;99.90
50969;DHT22;36982;51.474;7.228;2022-07-29T12:12:21;20.40;99.90
50969;DHT22;36982;51.474;7.228;2022-07-29T12:14:47;20.70;99.90
50969;DHT22;36982;51.474;7.228;2022-07-29T12:17:29;21.00;99.90
50969;DHT22;36982;51.474;7.228;2022-07-29T12:19:55;21.10;99.90
50969;DHT22;36982;51.474;7.228;2022-07-29T12:24:55;21.50;99.90
50969;DHT22;36982;51.474;7.228;2022-07-29T12:27:22;21.70;99.50
50969;DHT22;36982;51.474;7.228;2022-07-29T12:30:05;21.80;99.10
50969;DHT22;36982;51.474;7.228;2022-07-29T12:32:47;21.80;99.20
50969;DHT22;36982;51.474;7.228;2022-07-29T12:35:18;21.90;98.50
50969;DHT22;36982;51.474;7.228;2022-07-29T12:37:45;21.60;98.00
50969;DHT22;36982;51.474;7.228;2022-07-29T12:40:15;21.70;98.30
50969;DHT22;36982;51.474;7.228;2022-07-29T12:45:30;21.70;97.90
50969;DHT22;36982;51.474;7.228;2022-07-29T12:47:56;21.90;98.20
50969;DHT22;36982;51.474;7.228;2022-07-29T12:50:22;21.80;98.30
50969;DHT22;36982;51.474;7.228;2022-07-29T12:52:48;21.40;98.50
50969;DHT22;36982;51.474;7.228;2022-07-29T12:55:13;21.30;98.40
50969;DHT22;36982;51.474;7.228;2022-07-29T12:57:50;21.50;98.50
50969;DHT22;36982;51.474;7.228;2022-07-29T13:00:24;21.60;98.30
50969;DHT22;36982;51.474;7.228;2022-07-29T13:02:58;21.80;98.10
50969;DHT22;36982;51.474;7.228;2022-07-29T13:05:24;21.80;98.60
50969;DHT22;36982;51.474;7.228;2022-07-29T13:08:18;22.10;97.80
50969;DHT22;36982;51.474;7.228;2022-07-29T13:10:45;22.20;96.90
50969;DHT22;36982;51.474;7.228;2022-07-29T13:13:13;22.20;97.50
50969;DHT22;36982;51.474;7.228;2022-07-29T13:15:41;22.30;98.00
50969;DHT22;36982;51.474;7.228;2022-07-29T13:20:52;22.20;97.50
50969;DHT22;36982;51.474;7.228;2022-07-29T13:23:18;22.30;97.70
50969;DHT22;36982;51.474;7.228;2022-07-29T13:25:43;22.50;97.20
50969;DHT22;36982;51.474;7.228;2022-07-29T13:28:09;22.70;97.10
50969;DHT22;36982;51.474;7.228;2022-07-29T13:30:36;22.80;96.70
50969;DHT22;36982;51.474;7.228;2022-07-29T13:33:03;22.70;96.60
50969;DHT22;36982;51.474;7.228;2022-07-29T13:35:28;22.70;96.90
50969;DHT22;36982;51.474;7.228;2022-07-29T13:37:55;22.70;96.60
50969;DHT22;36982;51.474;7.228;2022-07-29T13:40:20;22.50;97.00
50969;DHT22;36982;51.474;7.228;2022-07-29T13:42:46;22.50;96.30
50969;DHT22;36982;51.474;7.228;2022-07-29T13:45:13;22.40;96.80
50969;DHT22;36982;51.474;7.228;2022-07-29T13:47:39;22.60;96.30
50969;DHT22;36982;51.474;7.228;2022-07-29T13:50:06;22.60;96.10
50969;DHT22;36982;51.474;7.228;2022-07-29T13:52:33;22.50;96.60
50969;DHT22;36982;51.474;7.228;2022-07-29T13:54:59;22.50;96.70
50969;DHT22;36982;51.474;7.228;2022-07-29T13:57:24;22.90;96.60
50969;DHT22;36982;51.474;7.228;2022-07-29T13:59:50;22.90;96.60
50969;DHT22;36982;51.474;7.228;2022-07-29T14:02:16;23.10;96.80
50969;DHT22;36982;51.474;7.228;2022-07-29T14:04:42;23.20;96.90
50969;DHT22;36982;51.474;7.228;2022-07-29T14:07:08;23.20;95.90
50969;DHT22;36982;51.474;7.228;2022-07-29T14:09:33;23.10;96.10
50969;DHT22;36982;51.474;7.228;2022-07-29T14:11:59;23.00;96.30
50969;DHT22;36982;51.474;7.228;2022-07-29T14:14:25;23.00;96.20
50969;DHT22;36982;51.474;7.228;2022-07-29T14:16:50;22.90;96.70
50969;DHT22;36982;51.474;7.228;2022-07-29T14:19:16;22.80;96.80
50969;DHT22;36982;51.474;7.228;2022-07-29T14:21:42;22.80;97.00
50969;DHT22;36982;51.474;7.228;2022-07-29T14:24:07;23.10;96.50
50969;DHT22;36982;51.474;7.228;2022-07-29T14:26:33;23.10;95.90
50969;DHT22;36982;51.474;7.228;2022-07-29T14:28:58;23.10;96.20
50969;DHT22;36982;51.474;7.228;2022-07-29T14:31:24;23.20;95.50
50969;DHT22;36982;51.474;7.228;2022-07-29T14:33:50;23.40;95.80
50969;DHT22;36982;51.474;7.228;2022-07-29T14:36:16;23.40;95.90
50969;DHT22;36982;51.474;7.228;2022-07-29T14:38:41;23.30;95.60
50969;DHT22;36982;51.474;7.228;2022-07-29T14:41:07;23.20;95.80
50969;DHT22;36982;51.474;7.228;2022-07-29T14:43:34;23.20;95.60
50969;DHT22;36982;51.474;7.228;2022-07-29T14:46:00;23.20;95.60
50969;DHT22;36982;51.474;7.228;2022-07-29T14:48:26;23.10;95.90
50969;DHT22;36982;51.474;7.228;2022-07-29T14:50:51;23.20;95.60
50969;DHT22;36982;51.474;7.228;2022-07-29T14:53:17;23.10;95.60
50969;DHT22;36982;51.474;7.228;2022-07-29T14:55:43;23.30;95.70
50969;DHT22;36982;51.474;7.228;2022-07-29T14:58:09;23.40;95.40
50969;DHT22;36982;51.474;7.228;2022-07-29T15:00:34;23.60;95.10
50969;DHT22;36982;51.474;7.228;2022-07-29T15:03:02;23.60;95.40
50969;DHT22;36982;51.474;7.228;2022-07-29T15:05:28;23.40;94.80
50969;DHT22;36982;51.474;7.228;2022-07-29T15:07:54;23.30;95.20
50969;DHT22;36982;51.474;7.228;2022-07-29T15:10:20;23.40;95.00
50969;DHT22;36982;51.474;7.228;2022-07-29T15:12:45;23.40;95.30
50969;DHT22;36982;51.474;7.228;2022-07-29T15:15:11;23.30;95.60
50969;DHT22;36982;51.474;7.228;2022-07-29T15:17:37;23.40;95.10
50969;DHT22;36982;51.474;7.228;2022-07-29T15:20:03;23.40;95.20
50969;DHT22;36982;51.474;7.228;2022-07-29T15:22:29;23.40;95.30
50969;DHT22;36982;51.474;7.228;2022-07-29T15:24:54;23.50;94.80
50969;DHT22;36982;51.474;7.228;2022-07-29T15:27:20;23.50;94.60
50969;DHT22;36982;51.474;7.228;2022-07-29T15:29:46;23.40;94.20
50969;DHT22;36982;51.474;7.228;2022-07-29T15:32:11;23.40;94.30
50969;DHT22;36982;51.474;7.228;2022-07-29T15:34:38;23.40;94.10
50969;DHT22;36982;51.474;7.228;2022-07-29T15:37:04;23.50;94.10
50969;DHT22;36982;51.474;7.228;2022-07-29T15:39:30;23.50;94.00
50969;DHT22;36982;51.474;7.228;2022-07-29T15:41:56;23.40;93.90
50969;DHT22;36982;51.474;7.228;2022-07-29T15:44:22;23.50;94.50
50969;DHT22;36982;51.474;7.228;2022-07-29T15:46:48;23.60;94.60
50969;DHT22;36982;51.474;7.228;2022-07-29T15:49:29;23.70;95.50
50969;DHT22;36982;51.474;7.228;2022-07-29T15:51:59;23.50;96.00
50969;DHT22;36982;51.474;7.228;2022-07-29T15:54:26;23.40;96.20
50969;DHT22;36982;51.474;7.228;2022-07-29T15:56:52;23.50;96.10
50969;DHT22;36982;51.474;7.228;2022-07-29T15:59:18;23.60;96.10
50969;DHT22;36982;51.474;7.228;2022-07-29T16:01:44;23.50;96.30
50969;DHT22;36982;51.474;7.228;2022-07-29T16:04:10;23.60;96.10
50969;DHT22;36982;51.474;7.228;2022-07-29T16:06:36;23.70;96.20
50969;DHT22;36982;51.474;7.228;2022-07-29T16:09:01;23.80;95.90
50969;DHT22;36982;51.474;7.228;2022-07-29T16:11:27;23.90;95.80
50969;DHT22;36982;51.474;7.228;2022-07-29T16:13:52;23.80;95.80
50969;DHT22;36982;51.474;7.228;2022-07-29T16:16:18;23.90;95.60
50969;DHT22;36982;51.474;7.228;2022-07-29T16:18:44;23.90;95.60
50969;DHT22;36982;51.474;7.228;2022-07-29T16:21:11;23.80;95.90
50969;DHT22;36982;51.474;7.228;2022-07-29T16:23:38;23.90;95.60
50969;DHT22;36982;51.474;7.228;2022-07-29T16:26:04;23.80;95.50
50969;DHT22;36982;51.474;7.228;2022-07-29T16:28:29;23.80;95.80
50969;DHT22;36982;51.474;7.228;2022-07-29T16:30:55;23.70;96.00
50969;DHT22;36982;51.474;7.228;2022-07-29T16:33:22;23.70;95.80
50969;DHT22;36982;51.474;7.228;2022-07-29T16:35:48;23.70;95.80